Flight Track Log - Related Links

Times and Time Zones

All times are in EDT time to prevent confusion due to time zone crossing. See the KAP35 flight status page for this flight to view local times or setup timezone preferences in your user account.

Time Position Orientation Groundspeed Altitude Reporting Facility
EDT Latitude Longitude Course Direction KTS MPH feet Rate Location/Type
Wed 11:18:54 AM 44.3461 -74.0308 139° Southeast 168 193 5,800  Level Boston Center
Wed 11:19:54 AM 44.3194 -73.9983 139° Southeast 153 176 6,700 750 Climbing Boston Center
Wed 11:20:54 AM 44.2931 -73.9628 136° Southeast 138 159 7,300 700 Climbing Boston Center
Wed 11:21:54 AM 44.2683 -73.9244 132° Southeast 132 152 8,100 750 Climbing Boston Center
Wed 11:22:54 AM 44.2461 -73.8833 127° Southeast 132 152 8,800 600 Climbing Boston Center
Wed 11:23:54 AM 44.2217 -73.8392 128° Southeast 132 152 9,300 550 Climbing Boston Center
Wed 11:24:54 AM 44.1950 -73.7953 130° Southeast 149 171 9,900 550 Climbing Boston Center
Wed 11:25:54 AM 44.1642 -73.7481 132° Southeast 167 192 10,400 600 Climbing Boston Center
Wed 11:26:54 AM 44.1378 -73.7042 130° Southeast 167 192 11,100 550 Climbing Boston Center
Wed 11:27:54 AM 44.1069 -73.6544 131° Southeast 167 192 11,500 250 Climbing Boston Center
Wed 11:28:54 AM 44.0742 -73.6047 133° Southeast 172 198 11,600  Climbing Boston Center
Wed 11:29:54 AM 44.0331 -73.5403 132° Southeast 189 217 11,500  Descending Boston Center
Wed 11:30:54 AM 44.0003 -73.4847 129° Southeast 189 217 11,600 50 Climbing Boston Center
Wed 11:31:54 AM 43.9694 -73.4325 129° Southeast 184 212 11,600  Level Boston Center
Wed 11:32:54 AM 43.9325 -73.3769 133° Southeast 189 217 11,600  Level Boston Center
Wed 11:33:54 AM 43.8975 -73.3217 131° Southeast 189 217 11,600 -50 Level Boston Center
Wed 11:34:54 AM 43.8625 -73.2664 131° Southeast 189 217 11,500 -50 Descending Boston Center
Wed 11:35:54 AM 43.8253 -73.2142 135° Southeast 189 217 11,500  Level Boston Center
Wed 11:36:54 AM 43.7903 -73.1592 131° Southeast 194 223 11,500  Level Boston Center
Wed 11:37:54 AM 43.7553 -73.1042 131° Southeast 194 223 11,500  Level Boston Center
Wed 11:38:54 AM 43.7242 -73.0550 131° Southeast 194 223 11,500  Level Boston Center
Wed 11:39:54 AM 43.6911 -73.0000 130° Southeast 189 217 11,500  Level Boston Center
Wed 11:40:54 AM 43.6539 -72.9367 129° Southeast 189 217 11,500  Level Boston Center
Wed 11:41:54 AM 43.6250 -72.8961 135° Southeast 189 217 11,500  Level Boston Center
Wed 11:42:54 AM 43.5814 -72.8328 134° Southeast 189 217 11,500  Level Boston Center
Wed 11:43:54 AM 43.5442 -72.7781 133° Southeast 189 217 11,500 50 Level Boston Center
Wed 11:44:54 AM 43.5086 -72.7264 133° Southeast 189 217 11,600 50 Climbing Boston Center
Wed 11:45:54 AM 43.4756 -72.6689 128° Southeast 189 217 11,600  Level Boston Center
Wed 11:46:54 AM 43.4422 -72.6144 130° Southeast 189 217 11,600  Level Boston Center
Wed 11:47:54 AM 43.4089 -72.5631 132° Southeast 189 217 11,600  Level Boston Center
Wed 11:48:54 AM 43.3736 -72.5086 132° Southeast 189 217 11,600 -50 Level Boston Center
Wed 11:49:54 AM 43.3383 -72.4544 132° Southeast 189 217 11,500 -350 Descending Boston Center
Wed 11:50:54 AM 43.2986 -72.3972 134° Southeast 189 217 10,900 -600 Descending Boston Center
Wed 11:51:54 AM 43.2589 -72.3375 132° Southeast 199 229 10,300 -600 Descending Boston Center
Wed 11:52:54 AM 43.2194 -72.2778 132° Southeast 204 235 9,700 -600 Descending Boston Center
Wed 11:53:54 AM 43.1839 -72.2181 129° Southeast 209 241 9,100 -650 Descending Boston Center
Wed 11:54:54 AM 43.1442 -72.1556 131° Southeast 209 241 8,400 -636 Descending Boston Center
Wed 11:56:06 AM 43.0981 -72.0847 132° Southeast 204 235 7,700 -545 Descending Boston Center
Wed 11:57:06 AM 43.0644 -72.0367 134° Southeast 199 229 7,200 -600 Descending Boston Center
Wed 11:58:06 AM 43.0289 -71.9714 127° Southeast 193 222 6,500 -500 Descending Boston Center
Wed 11:59:06 AM 42.9994 -71.9319 136° Southeast 188 216 6,200 -450 Descending Boston Center
Wed 12:00:06 PM 42.9575 -71.8728 134° Southeast 183 211 5,600 -450 Descending Boston Center
Wed 12:01:06 PM 42.9322 -71.8306 129° Southeast 183 211 5,300 -350 Descending Boston Center
Wed 12:02:06 PM 42.8922 -71.7683 131° Southeast 188 216 4,900 -397 Descending Boston Center
Wed 12:03:07 PM 42.8586 -71.7264 138° Southeast 182 209 4,500 -150 Descending Boston Center
Wed 12:04:06 PM 42.8314 -71.6814 130° Southeast 172 198 4,600 -50 Climbing Boston Center
Wed 12:05:06 PM 42.7956 -71.6308 134° Southeast 172 198 4,400 -50 Descending Boston Center
Wed 12:06:06 PM 42.7619 -71.5803 132° Southeast 161 185 4,500 50 Climbing Boston Center
Wed 12:07:06 PM 42.7367 -71.5411 131° Southeast 161 185 4,500 50 Level Boston Center
Wed 12:08:06 PM 42.7092 -71.5019 134° Southeast 161 185 4,600 50 Climbing Boston Center
Wed 12:09:06 PM 42.6733 -71.4517 134° Southeast 161 185 4,600 -50 Level Boston Center
Wed 12:10:06 PM 42.6375 -71.4044 136° Southeast 161 185 4,500 -44 Descending Boston Center
Wed 12:11:23 PM 42.6000 -71.3333 126° Southeast 159 183 4,500 44 Level KA90
Wed 12:12:23 PM 42.5667 -71.3000 144° Southeast 160 184 4,600  Climbing KA90
Wed 12:13:23 PM 42.5333 -71.2667 144° Southeast 163 188 4,500 -50 Descending KA90
Wed 12:14:23 PM 42.4833 -71.2333 154° Southeast 166 191 4,500 50 Level KA90
Wed 12:15:23 PM 42.4500 -71.2000 144° Southeast 163 188 4,600 50 Climbing KA90
Wed 12:16:23 PM 42.4000 -71.1833 166° South 167 192 4,600 -300 Level KA90
Wed 12:17:23 PM 42.3667 -71.1500 144° Southeast 153 176 4,000 -850 Descending KA90
Wed 12:18:23 PM 42.3333 -71.1167 144° Southeast 146 168 2,900 -1,100 Descending KA90
Wed 12:19:23 PM 42.3167 -71.0833 124° Southeast 116 133 1,800 -1,000 Descending KA90
Wed 12:20:23 PM 42.3333 -71.0333 66° East 112 129 900 -900 Descending KA90
Wed 12:22:00 PM 42.3500 -71.0000 137° Southeast  Level FlightAware Approximate
Wed 12:29:00 PM 42.3630 -71.0064 137° Southeast  Level Estimated
Wed 12:30:00 PM 42.3630 -71.0064 137° Southeast  Level Estimated

Login

Don't have an account? Register now (free) for customized features, flight alerts, and more!